Time;durP1;ratioP1;P1;durP2;ratioP2;P2;SDS_P1;SDS_P2;PMS_P1;PMS_P2;Temp;Humidity;BMP_temperature;BMP_pressure;BME280_temperature;BME280_humidity;BME280_pressure;Samples;Min_cycle;Max_cycle;Signal;HPM_P1;HPM_P2
2023/04/28 00:01:37;;;;;;;1999.90;999.90;;;7.40;99.90;;;;;;5088131;28;20491;-71
2023/04/28 00:04:04;;;;;;;1999.90;999.90;;;7.40;99.90;;;;;;5088819;28;21040;-73
2023/04/28 00:06:31;;;;;;;1999.90;999.90;;;7.50;99.90;;;;;;5089299;28;20807;-74
2023/04/28 00:08:57;;;;;;;1999.90;999.90;;;7.50;99.90;;;;;;5088088;28;20422;-73
2023/04/28 00:11:25;;;;;;;1999.90;999.90;;;7.60;99.90;;;;;;5087501;28;20429;-73
2023/04/28 00:13:52;;;;;;;1999.90;999.90;;;7.70;99.90;;;;;;5084052;28;20449;-75
2023/04/28 00:16:19;;;;;;;1999.90;999.90;;;7.60;99.90;;;;;;5089236;28;20441;-73
2023/04/28 00:18:45;;;;;;;1999.90;999.90;;;7.60;99.90;;;;;;5089066;28;20430;-74
2023/04/28 00:21:12;;;;;;;1999.90;999.90;;;7.50;99.90;;;;;;5089106;28;20425;-72
2023/04/28 00:23:38;;;;;;;1999.90;999.90;;;7.50;99.90;;;;;;5087234;28;20866;-72
2023/04/28 00:26:05;;;;;;;1999.90;999.90;;;7.50;99.90;;;;;;5088168;28;20487;-74
2023/04/28 00:28:34;;;;;;;1999.90;999.90;;;7.60;99.90;;;;;;5088214;28;20437;-74
2023/04/28 00:31:01;;;;;;;1999.90;999.90;;;7.50;99.90;;;;;;5088950;28;20838;-75
2023/04/28 00:33:28;;;;;;;1999.90;999.90;;;7.50;99.90;;;;;;5087286;28;20430;-74
2023/04/28 00:35:59;;;;;;;1999.90;999.90;;;7.40;99.90;;;;;;5089102;28;20431;-74
2023/04/28 00:38:26;;;;;;;1999.90;999.90;;;7.30;99.90;;;;;;5088252;28;20460;-75
2023/04/28 00:40:52;;;;;;;1999.90;999.90;;;7.30;99.90;;;;;;5087926;28;20440;-73
2023/04/28 00:43:19;;;;;;;1999.90;999.90;;;7.50;99.90;;;;;;5087905;28;20421;-74
2023/04/28 00:45:48;;;;;;;1999.90;999.90;;;7.60;99.90;;;;;;5088582;28;22552;-74
2023/04/28 00:48:15;;;;;;;1999.90;999.90;;;7.70;99.90;;;;;;5087665;28;20429;-74
2023/04/28 00:50:42;;;;;;;1999.90;999.90;;;7.80;99.90;;;;;;5088871;28;20455;-71
2023/04/28 00:53:10;;;;;;;1999.90;999.90;;;7.80;99.90;;;;;;5087923;28;20425;-71
2023/04/28 00:55:37;;;;;;;1999.90;999.90;;;7.80;99.90;;;;;;5080793;28;20479;-73
2023/04/28 00:58:05;;;;;;;1999.90;999.90;;;7.90;99.90;;;;;;5088355;28;20425;-73
2023/04/28 01:00:31;;;;;;;1999.90;999.90;;;7.90;99.90;;;;;;5091795;28;20499;-73
2023/04/28 01:03:00;;;;;;;1999.90;999.90;;;8.00;99.90;;;;;;5091644;28;20973;-74
2023/04/28 01:05:27;;;;;;;1999.90;999.90;;;8.00;99.90;;;;;;5092027;28;20425;-74
2023/04/28 01:07:53;;;;;;;1999.90;999.90;;;8.10;99.90;;;;;;5091921;28;20434;-75
2023/04/28 01:10:20;;;;;;;1999.90;999.90;;;8.00;99.90;;;;;;5091426;28;20502;-73
2023/04/28 01:12:47;;;;;;;1999.90;999.90;;;8.10;99.90;;;;;;5091897;28;20975;-73
2023/04/28 01:15:16;;;;;;;1999.90;999.90;;;8.10;99.90;;;;;;5091903;28;20545;-75
2023/04/28 01:17:43;;;;;;;1999.90;999.90;;;8.10;99.90;;;;;;5092066;28;20495;-73
2023/04/28 01:20:12;;;;;;;1999.90;999.90;;;8.10;99.90;;;;;;5092313;28;20434;-72
2023/04/28 01:22:39;;;;;;;1999.90;999.90;;;8.00;99.90;;;;;;5089812;28;20433;-74
2023/04/28 01:25:07;;;;;;;1999.90;999.90;;;8.10;99.90;;;;;;5090582;28;20437;-74
2023/04/28 01:27:34;;;;;;;1999.90;999.90;;;8.10;99.90;;;;;;5091860;28;20437;-74
2023/04/28 01:30:00;;;;;;;1999.90;999.90;;;8.10;99.90;;;;;;5090629;28;20479;-74
2023/04/28 01:32:27;;;;;;;1999.90;999.90;;;8.10;99.90;;;;;;5089611;28;20471;-74
2023/04/28 01:34:54;;;;;;;1999.90;999.90;;;8.10;99.90;;;;;;5091419;28;20919;-73
2023/04/28 01:37:20;;;;;;;1999.90;999.90;;;8.10;99.90;;;;;;5091030;28;20470;-74
2023/04/28 01:39:47;;;;;;;1999.90;999.90;;;8.20;99.90;;;;;;5089887;28;20461;-74
2023/04/28 01:42:15;;;;;;;1999.90;999.90;;;8.20;99.90;;;;;;5091313;28;20853;-74
2023/04/28 01:44:41;;;;;;;1999.90;999.90;;;8.30;99.90;;;;;;5090439;28;20426;-74
2023/04/28 01:47:08;;;;;;;1999.90;999.90;;;8.30;99.90;;;;;;5090435;28;20458;-74
2023/04/28 01:49:35;;;;;;;1999.90;999.90;;;8.20;99.90;;;;;;5091323;28;20433;-73
2023/04/28 01:52:02;;;;;;;1999.90;999.90;;;8.10;99.90;;;;;;5091611;28;20430;-73
2023/04/28 01:54:28;;;;;;;1999.90;999.90;;;8.10;99.90;;;;;;5090541;28;20426;-74
2023/04/28 01:56:55;;;;;;;1999.90;999.90;;;8.10;99.90;;;;;;5090598;28;20483;-74
2023/04/28 01:59:23;;;;;;;1999.90;999.90;;;8.10;99.90;;;;;;5090972;28;20841;-74
2023/04/28 02:01:50;;;;;;;1999.90;999.90;;;8.10;99.90;;;;;;5106225;28;20429;-72
2023/04/28 02:04:16;;;;;;;1999.90;999.90;;;8.20;99.90;;;;;;5110795;28;20432;-72
2023/04/28 02:06:43;;;;;;;1999.90;999.90;;;8.20;99.90;;;;;;5110027;28;20498;-73
2023/04/28 02:09:10;;;;;;;1999.90;999.90;;;8.30;99.90;;;;;;5096254;28;20491;-73
2023/04/28 02:11:36;;;;;;;1999.90;999.90;;;8.20;99.90;;;;;;5090712;28;20433;-74
2023/04/28 02:14:03;;;;;;;1999.90;999.90;;;8.10;99.90;;;;;;5089762;28;20838;-75
2023/04/28 02:16:32;;;;;;;1999.90;999.90;;;8.10;99.90;;;;;;5090430;28;20429;-73
2023/04/28 02:18:58;;;;;;;1999.90;999.90;;;8.10;99.90;;;;;;5089062;28;20504;-73
2023/04/28 02:21:26;;;;;;;1999.90;999.90;;;8.00;99.90;;;;;;5090408;28;20976;-74
2023/04/28 02:23:53;;;;;;;1999.90;999.90;;;8.00;99.90;;;;;;5090390;28;20422;-73
2023/04/28 02:26:20;;;;;;;1999.90;999.90;;;7.90;99.90;;;;;;5090243;28;21011;-74
2023/04/28 02:28:47;;;;;;;1999.90;999.90;;;7.90;99.90;;;;;;5091395;28;20935;-73
2023/04/28 02:31:14;;;;;;;1999.90;999.90;;;7.90;99.90;;;;;;5100218;28;20436;-74
2023/04/28 02:33:42;;;;;;;1999.90;999.90;;;7.80;99.90;;;;;;5101077;28;20874;-71
2023/04/28 02:36:09;;;;;;;1999.90;999.90;;;7.80;99.90;;;;;;5098364;28;20430;-73
2023/04/28 02:38:36;;;;;;;1999.90;999.90;;;7.80;99.90;;;;;;5089430;28;20850;-72
2023/04/28 02:41:04;;;;;;;1999.90;999.90;;;7.90;99.90;;;;;;5090336;28;20426;-73
2023/04/28 02:43:31;;;;;;;1999.90;999.90;;;7.80;99.90;;;;;;5090051;28;20516;-74
2023/04/28 02:45:58;;;;;;;1999.90;999.90;;;7.80;99.90;;;;;;5089949;28;20908;-73
2023/04/28 02:48:25;;;;;;;1999.90;999.90;;;7.80;99.90;;;;;;5089329;28;20479;-75
2023/04/28 02:50:53;;;;;;;1999.90;999.90;;;7.90;99.90;;;;;;5089434;28;20430;-74
2023/04/28 02:53:20;;;;;;;1999.90;999.90;;;7.80;99.90;;;;;;5090008;28;20452;-74
2023/04/28 02:55:47;;;;;;;1999.90;999.90;;;7.80;99.90;;;;;;5090176;28;20985;-73
2023/04/28 02:58:14;;;;;;;1999.90;999.90;;;7.90;99.90;;;;;;5089740;28;20565;-73
2023/04/28 03:00:41;;;;;;;1999.90;999.90;;;7.90;99.90;;;;;;5089638;28;20433;-71
2023/04/28 03:03:07;;;;;;;1999.90;999.90;;;7.80;99.90;;;;;;5088495;28;20495;-73
2023/04/28 03:05:34;;;;;;;1999.90;999.90;;;7.80;99.90;;;;;;5090285;28;20433;-73
2023/04/28 03:08:02;;;;;;;1999.90;999.90;;;7.90;99.90;;;;;;5090258;28;20460;-73
2023/04/28 03:10:29;;;;;;;1999.90;999.90;;;7.90;99.90;;;;;;5089801;28;20511;-73
2023/04/28 03:12:55;;;;;;;1999.90;999.90;;;7.90;99.90;;;;;;5089433;28;20573;-74
2023/04/28 03:15:22;;;;;;;1999.90;999.90;;;7.90;99.90;;;;;;5090256;28;20433;-71
2023/04/28 03:17:48;;;;;;;1999.90;999.90;;;7.90;99.90;;;;;;5088561;28;21098;-73
2023/04/28 03:20:15;;;;;;;1999.90;999.90;;;7.90;99.90;;;;;;5089902;28;20487;-74
2023/04/28 03:22:42;;;;;;;1999.90;999.90;;;7.80;99.90;;;;;;5087763;28;20433;-73
2023/04/28 03:25:10;;;;;;;1999.90;999.90;;;7.80;99.90;;;;;;5089693;28;20434;-73
2023/04/28 03:27:36;;;;;;;1999.90;999.90;;;7.80;99.90;;;;;;5082716;28;20430;-73
2023/04/28 03:30:04;;;;;;;1999.90;999.90;;;7.80;99.90;;;;;;5089561;28;20854;-73
2023/04/28 03:32:30;;;;;;;1999.90;999.90;;;7.80;99.90;;;;;;5084951;28;20980;-74
2023/04/28 03:34:57;;;;;;;1999.90;999.90;;;7.80;99.90;;;;;;5086473;28;20470;-73
2023/04/28 03:37:24;;;;;;;1999.90;999.90;;;7.80;99.90;;;;;;5089306;28;21084;-73
2023/04/28 03:39:50;;;;;;;1999.90;999.90;;;7.90;99.90;;;;;;5089154;28;20846;-74
2023/04/28 03:42:18;;;;;;;1999.90;999.90;;;7.70;99.90;;;;;;5086201;28;20426;-74
2023/04/28 03:44:45;;;;;;;1999.90;999.90;;;7.70;99.90;;;;;;5087273;28;20426;-73
2023/04/28 03:47:11;;;;;;;1999.90;999.90;;;7.70;99.90;;;;;;5086297;28;20438;-73
2023/04/28 03:49:38;;;;;;;1999.90;999.90;;;7.70;99.90;;;;;;5086743;28;20430;-71
2023/04/28 03:52:05;;;;;;;1999.90;999.90;;;7.30;99.90;;;;;;5087233;28;20850;-74
2023/04/28 03:54:31;;;;;;;1999.90;999.90;;;7.70;99.90;;;;;;5087852;28;20422;-73
2023/04/28 03:56:58;;;;;;;1999.90;999.90;;;7.70;99.90;;;;;;5088222;28;20459;-72
2023/04/28 03:59:26;;;;;;;1999.90;999.90;;;7.60;99.90;;;;;;5088807;28;20430;-74
2023/04/28 04:01:53;;;;;;;1999.90;999.90;;;7.70;99.90;;;;;;5087739;28;20740;-73
2023/04/28 04:04:20;;;;;;;1999.90;999.90;;;7.80;99.90;;;;;;5087972;28;20426;-73
2023/04/28 04:06:46;;;;;;;1999.90;999.90;;;7.60;99.90;;;;;;5087832;28;20433;-73
2023/04/28 04:09:13;;;;;;;1999.90;999.90;;;7.50;99.90;;;;;;5089025;28;20494;-73
2023/04/28 04:11:40;;;;;;;1999.90;999.90;;;7.30;99.90;;;;;;5085313;28;20499;-74
2023/04/28 04:14:06;;;;;;;1999.90;999.90;;;7.10;99.90;;;;;;5087576;28;20430;-72
2023/04/28 04:16:35;;;;;;;1999.90;999.90;;;7.00;99.90;;;;;;5087693;28;20919;-74
2023/04/28 04:19:02;;;;;;;1999.90;999.90;;;7.00;99.90;;;;;;5089080;28;20426;-72
2023/04/28 04:21:30;;;;;;;1999.90;999.90;;;6.90;99.90;;;;;;5088621;28;20479;-73
2023/04/28 04:23:57;;;;;;;1999.90;999.90;;;6.90;99.90;;;;;;5087964;28;20437;-73
2023/04/28 04:26:23;;;;;;;1999.90;999.90;;;6.80;99.90;;;;;;5088247;28;20482;-73
2023/04/28 04:28:50;;;;;;;1999.90;999.90;;;6.90;99.90;;;;;;5088953;28;20425;-74
2023/04/28 04:31:18;;;;;;;1999.90;999.90;;;7.00;99.90;;;;;;5086765;28;20425;-73
2023/04/28 04:33:46;;;;;;;1999.90;999.90;;;7.00;99.90;;;;;;5090985;28;20432;-73
2023/04/28 04:36:13;;;;;;;1999.90;999.90;;;7.20;99.90;;;;;;5091798;28;20912;-73
2023/04/28 04:38:40;;;;;;;1999.90;999.90;;;7.30;99.90;;;;;;5093004;28;20426;-74
2023/04/28 04:41:06;;;;;;;1999.90;999.90;;;7.40;99.90;;;;;;5093041;28;20477;-73
2023/04/28 04:43:33;;;;;;;1999.90;999.90;;;7.40;99.90;;;;;;5091573;28;20513;-73
2023/04/28 04:46:00;;;;;;;1999.90;999.90;;;7.40;99.90;;;;;;5090459;28;20495;-73
2023/04/28 04:48:26;;;;;;;1999.90;999.90;;;7.50;99.90;;;;;;5093055;28;20478;-74
2023/04/28 04:50:54;;;;;;;1999.90;999.90;;;7.60;99.90;;;;;;5092941;28;20487;-73
2023/04/28 04:53:21;;;;;;;1999.90;999.90;;;7.60;99.90;;;;;;5092411;28;20995;-74
2023/04/28 04:55:48;;;;;;;1999.90;999.90;;;7.70;99.90;;;;;;5090806;28;20421;-74
2023/04/28 04:58:14;;;;;;;1999.90;999.90;;;7.60;99.90;;;;;;5091493;28;20465;-75
2023/04/28 05:00:41;;;;;;;1999.90;999.90;;;7.70;99.90;;;;;;5086785;28;20845;-73
2023/04/28 05:03:08;;;;;;;1999.90;999.90;;;7.60;99.90;;;;;;5092223;28;20475;-71
2023/04/28 05:05:35;;;;;;;1999.90;999.90;;;7.60;99.90;;;;;;5090695;28;20512;-74
2023/04/28 05:08:04;;;;;;;1999.90;999.90;;;7.60;99.90;;;;;;5092296;28;20441;-73
2023/04/28 05:10:31;;;;;;;1999.90;999.90;;;7.60;99.90;;;;;;5092094;28;20472;-73
2023/04/28 05:12:58;;;;;;;1999.90;999.90;;;7.60;99.90;;;;;;5111161;22;20870;-73
2023/04/28 05:15:24;;;;;;;1999.90;999.90;;;7.50;99.90;;;;;;5068988;28;20423;-74
2023/04/28 05:17:51;;;;;;;1999.90;999.90;;;7.60;99.90;;;;;;5070415;28;20435;-73
2023/04/28 05:20:18;;;;;;;1999.90;999.90;;;7.70;99.90;;;;;;5071476;28;20763;-74
2023/04/28 05:22:45;;;;;;;1999.90;999.90;;;7.70;99.90;;;;;;5071017;28;20551;-73
2023/04/28 05:25:13;;;;;;;1999.90;999.90;;;7.80;99.90;;;;;;5070374;28;20420;-74
2023/04/28 05:27:39;;;;;;;1999.90;999.90;;;7.80;99.90;;;;;;5070260;28;20431;-70
2023/04/28 05:30:07;;;;;;;1999.90;999.90;;;7.90;99.90;;;;;;5071403;28;20443;-72
2023/04/28 05:32:34;;;;;;;1999.90;999.90;;;7.80;99.90;;;;;;5070200;28;20431;-73
2023/04/28 05:35:01;;;;;;;1999.90;999.90;;;8.00;99.90;;;;;;5070803;28;20620;-73
2023/04/28 05:37:28;;;;;;;1999.90;999.90;;;7.90;99.90;;;;;;5069656;28;20517;-74
2023/04/28 05:39:55;;;;;;;1999.90;999.90;;;8.00;99.90;;;;;;5067535;28;21427;-71
2023/04/28 05:42:23;;;;;;;1999.90;999.90;;;8.10;99.90;;;;;;5066132;28;20443;-72
2023/04/28 05:44:50;;;;;;;1999.90;999.90;;;8.10;99.90;;;;;;5060519;28;20488;-71
2023/04/28 05:47:16;;;;;;;1999.90;999.90;;;8.10;99.90;;;;;;5068739;28;20438;-70
2023/04/28 05:49:43;;;;;;;1999.90;999.90;;;8.20;99.90;;;;;;5068635;28;20432;-71
2023/04/28 05:52:09;;;;;;;1999.90;999.90;;;8.40;99.90;;;;;;5067074;28;20431;-70
2023/04/28 05:54:36;;;;;;;1999.90;999.90;;;8.30;99.90;;;;;;5070649;28;20450;-72
2023/04/28 05:57:03;;;;;;;1999.90;999.90;;;8.30;99.90;;;;;;5067261;28;20504;-72
2023/04/28 05:59:31;;;;;;;1999.90;999.90;;;8.30;99.90;;;;;;5070328;28;20833;-72
2023/04/28 06:01:57;;;;;;;1999.90;999.90;;;8.30;99.90;;;;;;5064382;28;20856;-72
2023/04/28 06:04:24;;;;;;;1999.90;999.90;;;8.30;99.90;;;;;;5064431;28;20427;-71
2023/04/28 06:06:51;;;;;;;1999.90;999.90;;;8.20;99.90;;;;;;5067042;28;20813;-74
2023/04/28 06:09:19;;;;;;;1999.90;999.90;;;8.20;99.90;;;;;;5070531;28;20864;-75
2023/04/28 06:11:45;;;;;;;1999.90;999.90;;;8.40;99.90;;;;;;5066771;28;20424;-73
2023/04/28 06:14:12;;;;;;;1999.90;999.90;;;8.30;99.90;;;;;;5069074;28;20427;-74
2023/04/28 06:16:40;;;;;;;1999.90;999.90;;;8.30;99.90;;;;;;5067212;28;20431;-74
2023/04/28 06:19:07;;;;;;;1999.90;999.90;;;8.30;99.90;;;;;;5066333;28;20492;-74
2023/04/28 06:21:33;;;;;;;1999.90;999.90;;;8.30;99.90;;;;;;5067982;28;20469;-72
2023/04/28 06:24:01;;;;;;;1999.90;999.90;;;8.40;99.90;;;;;;5069860;28;20431;-74
2023/04/28 06:26:27;;;;;;;1999.90;999.90;;;8.40;99.90;;;;;;5068118;28;20441;-72
2023/04/28 06:28:54;;;;;;;1999.90;999.90;;;8.40;99.90;;;;;;5068986;28;21039;-74
2023/04/28 06:31:21;;;;;;;1999.90;999.90;;;8.40;99.90;;;;;;5065819;28;20431;-73
2023/04/28 06:33:49;;;;;;;1999.90;999.90;;;8.50;99.90;;;;;;5064275;28;20427;-74
2023/04/28 06:36:16;;;;;;;1999.90;999.90;;;8.50;99.90;;;;;;5068107;28;20484;-72
2023/04/28 06:38:43;;;;;;;1999.90;999.90;;;8.60;99.90;;;;;;5068316;28;20439;-73
2023/04/28 06:41:10;;;;;;;1999.90;999.90;;;8.60;99.90;;;;;;5069772;28;20427;-73
2023/04/28 06:43:37;;;;;;;1999.90;999.90;;;8.70;99.90;;;;;;5069638;28;20459;-72
2023/04/28 06:46:04;;;;;;;1999.90;999.90;;;8.90;99.90;;;;;;5067773;28;20432;-73
2023/04/28 06:48:31;;;;;;;1999.90;999.90;;;8.90;99.90;;;;;;5067712;28;20957;-73
2023/04/28 06:50:58;;;;;;;1999.90;999.90;;;9.00;99.90;;;;;;5067502;28;20431;-73
2023/04/28 06:53:25;;;;;;;1999.90;999.90;;;9.10;99.90;;;;;;5069525;28;20422;-73
2023/04/28 06:55:52;;;;;;;1999.90;999.90;;;9.00;99.90;;;;;;5071258;28;20504;-72
2023/04/28 06:58:19;;;;;;;1999.90;999.90;;;9.10;99.90;;;;;;5071328;28;20473;-72
2023/04/28 07:00:46;;;;;;;1999.90;999.90;;;9.20;99.90;;;;;;5071336;28;20416;-72
2023/04/28 07:03:12;;;;;;;1999.90;999.90;;;9.20;99.90;;;;;;5071020;28;20408;-72
2023/04/28 07:05:39;;;;;;;1999.90;999.90;;;9.20;99.90;;;;;;5071504;28;20435;-71
2023/04/28 07:08:07;;;;;;;1999.90;999.90;;;9.40;99.90;;;;;;5069984;28;20485;-72
2023/04/28 07:10:34;;;;;;;1999.90;999.90;;;9.60;99.90;;;;;;5061494;28;20433;-70
2023/04/28 07:13:00;;;;;;;1999.90;999.90;;;9.50;99.90;;;;;;5071071;28;20416;-73
2023/04/28 07:15:27;;;;;;;1999.90;999.90;;;9.40;99.90;;;;;;5069511;28;20423;-73
2023/04/28 07:17:54;;;;;;;1999.90;999.90;;;9.30;99.90;;;;;;5063021;28;20415;-72
2023/04/28 07:20:21;;;;;;;1999.90;999.90;;;9.70;99.90;;;;;;5070902;28;20786;-73
2023/04/28 07:22:47;;;;;;;1999.90;999.90;;;9.70;99.90;;;;;;5070533;28;20411;-73
2023/04/28 07:25:16;;;;;;;1999.90;999.90;;;9.50;99.90;;;;;;5068686;28;20424;-73
2023/04/28 07:27:42;;;;;;;1999.90;999.90;;;9.50;99.90;;;;;;5062258;28;20758;-73
2023/04/28 07:30:09;;;;;;;1999.90;999.90;;;9.70;99.90;;;;;;5063626;28;20440;-73
2023/04/28 07:32:36;;;;;;;1999.90;999.90;;;9.90;99.90;;;;;;5062164;28;20420;-72
2023/04/28 07:35:03;;;;;;;1999.90;999.90;;;9.90;99.90;;;;;;5070910;28;20481;-72
2023/04/28 07:37:30;;;;;;;1999.90;999.90;;;10.10;99.90;;;;;;5070575;28;20789;-72
2023/04/28 07:39:56;;;;;;;1999.90;999.90;;;10.30;99.90;;;;;;5061223;28;20435;-72
2023/04/28 07:42:24;;;;;;;1999.90;999.90;;;10.40;99.90;;;;;;5070403;28;20419;-72
2023/04/28 07:44:51;;;;;;;1999.90;999.90;;;10.20;99.90;;;;;;5070550;28;20423;-73
2023/04/28 07:47:18;;;;;;;1999.90;999.90;;;10.40;99.90;;;;;;5070495;28;20469;-73
2023/04/28 07:49:44;;;;;;;1999.90;999.90;;;10.50;99.90;;;;;;5070670;28;20484;-72
2023/04/28 07:52:11;;;;;;;1999.90;999.90;;;10.50;99.90;;;;;;5070321;28;20447;-73
2023/04/28 07:54:38;;;;;;;1999.90;999.90;;;10.60;99.90;;;;;;5060943;28;20429;-72
2023/04/28 07:57:05;;;;;;;1999.90;999.90;;;10.60;99.90;;;;;;5070103;28;20473;-73
2023/04/28 07:59:33;;;;;;;1999.90;999.90;;;10.70;99.90;;;;;;5070331;28;20416;-73
2023/04/28 08:01:59;;;;;;;1999.90;999.90;;;10.80;99.90;;;;;;5070328;28;20461;-73
2023/04/28 08:04:26;;;;;;;1999.90;999.90;;;10.90;99.90;;;;;;5070443;28;20416;-73
2023/04/28 08:06:53;;;;;;;1999.90;999.90;;;11.00;99.90;;;;;;5070184;28;20411;-73
2023/04/28 08:09:20;;;;;;;1999.90;999.90;;;10.90;99.90;;;;;;5060547;28;20440;-71
2023/04/28 08:11:47;;;;;;;1999.90;999.90;;;11.10;99.90;;;;;;5070104;28;20427;-71
2023/04/28 08:14:13;;;;;;;1999.90;999.90;;;11.30;99.90;;;;;;5070080;28;20909;-71
2023/04/28 08:16:42;;;;;;;1999.90;999.90;;;11.40;99.90;;;;;;5070234;28;20432;-71
2023/04/28 08:19:09;;;;;;;1999.90;999.90;;;11.10;99.90;;;;;;5070281;28;20418;-71
2023/04/28 08:21:36;;;;;;;1999.90;999.90;;;11.40;99.90;;;;;;5070190;28;20419;-68
2023/04/28 08:24:02;;;;;;;1999.90;999.90;;;11.40;99.90;;;;;;5060687;28;20431;-71
2023/04/28 08:26:30;;;;;;;1999.90;999.90;;;11.40;99.90;;;;;;5069962;28;20849;-70
2023/04/28 08:28:56;;;;;;;1999.90;999.90;;;11.40;99.90;;;;;;5070824;28;20477;-74
2023/04/28 08:31:23;;;;;;;1999.90;999.90;;;11.60;99.90;;;;;;5070964;28;20411;-71
2023/04/28 08:33:51;;;;;;;1999.90;999.90;;;11.70;99.90;;;;;;5069890;28;20408;-72
2023/04/28 08:36:18;;;;;;;1999.90;999.90;;;12.00;99.90;;;;;;5069999;28;20423;-72
2023/04/28 08:38:46;;;;;;;1999.90;999.90;;;11.90;99.90;;;;;;5059168;28;20429;-72
2023/04/28 08:41:15;;;;;;;1999.90;999.90;;;12.00;99.90;;;;;;5069829;28;20905;-72
2023/04/28 08:43:42;;;;;;;1999.90;999.90;;;12.10;99.90;;;;;;5069931;28;20412;-72
2023/04/28 08:46:09;;;;;;;1999.90;999.90;;;12.20;99.90;;;;;;5070212;28;20423;-72
2023/04/28 08:48:40;;;;;;;1999.90;999.90;;;12.30;99.90;;;;;;5070026;28;20686;-72
2023/04/28 08:51:09;;;;;;;1999.90;999.90;;;12.20;99.90;;;;;;5069912;28;20896;-72
2023/04/28 08:53:38;;;;;;;1999.90;999.90;;;12.20;99.90;;;;;;5060146;28;20433;-70
2023/04/28 08:56:06;;;;;;;1999.90;999.90;;;12.50;99.90;;;;;;5070086;28;20449;-71
2023/04/28 08:58:36;;;;;;;1999.90;999.90;;;12.70;99.90;;;;;;5069802;28;20411;-72
2023/04/28 09:01:04;;;;;;;1999.90;999.90;;;12.80;99.90;;;;;;5069837;28;20785;-72
2023/04/28 09:03:31;;;;;;;1999.90;999.90;;;12.90;99.90;;;;;;5069674;28;20461;-72
2023/04/28 09:05:58;;;;;;;1999.90;999.90;;;12.90;99.90;;;;;;5069883;28;20827;-72
2023/04/28 09:08:26;;;;;;;1999.90;999.90;;;12.90;99.90;;;;;;5060924;28;20402;-71
2023/04/28 09:11:07;;;;;;;1999.90;999.90;;;12.90;99.90;;;;;;5069809;28;20481;-71
2023/04/28 09:13:33;;;;;;;1999.90;999.90;;;12.70;99.90;;;;;;5069290;28;20420;-72
2023/04/28 09:16:01;;;;;;;1999.90;999.90;;;12.80;99.90;;;;;;5069698;28;20423;-72
2023/04/28 09:18:29;;;;;;;1999.90;999.90;;;12.90;99.90;;;;;;5069523;28;20419;-72
2023/04/28 09:21:04;;;;;;;1999.90;999.90;;;12.80;99.90;;;;;;5070940;28;20411;-72
2023/04/28 09:23:32;;;;;;;1999.90;999.90;;;12.80;99.90;;;;;;5064815;28;20571;-72
2023/04/28 09:26:01;;;;;;;1999.90;999.90;;;12.90;99.90;;;;;;5053217;28;20436;-72
2023/04/28 09:28:28;;;;;;;1999.90;999.90;;;12.90;99.90;;;;;;5053086;28;20413;-72
2023/04/28 09:30:54;;;;;;;1999.90;999.90;;;12.90;99.90;;;;;;5053020;28;21010;-72
2023/04/28 09:33:21;;;;;;;1999.90;999.90;;;12.80;99.90;;;;;;5053175;28;20432;-72
2023/04/28 09:35:49;;;;;;;1999.90;999.90;;;12.90;99.90;;;;;;5056307;28;20431;-72
2023/04/28 09:38:16;;;;;;;1999.90;999.90;;;13.00;99.90;;;;;;5060317;28;20438;-72
2023/04/28 09:40:55;;;;;;;1999.90;999.90;;;12.90;99.90;;;;;;5073065;28;20416;-71
2023/04/28 09:43:27;;;;;;;1999.90;999.90;;;12.80;99.90;;;;;;5072790;28;20411;-72
2023/04/28 09:45:54;;;;;;;1999.90;999.90;;;12.70;99.90;;;;;;5072844;28;20419;-72
2023/04/28 09:48:29;;;;;;;1999.90;999.90;;;12.80;99.90;;;;;;5072686;28;20793;-72
2023/04/28 09:50:58;;;;;;;1999.90;999.90;;;12.60;99.90;;;;;;5072846;28;20582;-72
2023/04/28 09:53:25;;;;;;;1999.90;999.90;;;12.50;99.90;;;;;;5068452;28;20435;-72
2023/04/28 09:55:54;;;;;;;1999.90;999.90;;;12.50;99.90;;;;;;5071399;28;21012;-69
2023/04/28 09:58:22;;;;;;;1999.90;999.90;;;12.30;99.90;;;;;;5063958;28;20634;-72
2023/04/28 10:00:53;;;;;;;1999.90;999.90;;;12.30;99.90;;;;;;5072789;28;20488;-71
2023/04/28 10:03:22;;;;;;;1999.90;999.90;;;12.40;99.90;;;;;;5072408;28;20412;-72
2023/04/28 10:05:50;;;;;;;1999.90;999.90;;;12.50;99.90;;;;;;5072502;28;20491;-72
2023/04/28 10:08:18;;;;;;;1999.90;999.90;;;12.40;99.90;;;;;;5062899;28;20542;-72
2023/04/28 10:10:47;;;;;;;1999.90;999.90;;;12.20;99.90;;;;;;5072211;28;20422;-70
2023/04/28 10:13:16;;;;;;;1999.90;999.90;;;12.30;99.90;;;;;;5072101;28;20426;-72
2023/04/28 10:15:43;;;;;;;1999.90;999.90;;;12.10;99.90;;;;;;5072197;28;20790;-72
2023/04/28 10:18:11;;;;;;;1999.90;999.90;;;12.20;99.90;;;;;;5072152;28;20411;-71
2023/04/28 10:20:39;;;;;;;1999.90;999.90;;;12.10;99.90;;;;;;5072321;28;20407;-72
2023/04/28 10:23:25;;;;;;;1999.90;999.90;;;12.10;99.90;;;;;;5062431;28;20481;-71
2023/04/28 10:25:56;;;;;;;1999.90;999.90;;;12.10;99.90;;;;;;5072151;28;20481;-71
2023/04/28 10:28:25;;;;;;;1999.90;999.90;;;12.10;99.90;;;;;;5071970;28;20447;-72
2023/04/28 10:31:10;;;;;;;1999.90;999.90;;;12.00;99.90;;;;;;5071496;28;20936;-72
2023/04/28 10:33:37;;;;;;;1999.90;999.90;;;12.00;99.90;;;;;;5070351;28;20570;-72
2023/04/28 10:36:06;;;;;;;1999.90;999.90;;;12.20;99.90;;;;;;5068572;28;20477;-72
2023/04/28 10:38:33;;;;;;;1999.90;999.90;;;12.20;99.90;;;;;;5071585;28;20902;-72
2023/04/28 10:41:01;;;;;;;1999.90;999.90;;;12.20;99.90;;;;;;5071911;28;20416;-71
2023/04/28 10:43:39;;;;;;;1999.90;999.90;;;12.10;99.90;;;;;;5071559;28;20429;-72
2023/04/28 10:46:07;;;;;;;1999.90;999.90;;;12.10;99.90;;;;;;5071652;28;20470;-72
2023/04/28 10:48:55;;;;;;;1999.90;999.90;;;12.30;99.90;;;;;;5069491;28;20533;-72
2023/04/28 10:51:28;;;;;;;1999.90;999.90;;;12.20;99.90;;;;;;5066066;28;20407;-71
2023/04/28 10:54:18;;;;;;;1999.90;999.90;;;12.30;99.90;;;;;;5071449;28;20939;-72
2023/04/28 10:57:19;;;;;;;1999.90;999.90;;;12.40;99.90;;;;;;5071194;28;20427;-72
2023/04/28 10:59:49;;;;;;;1999.90;999.90;;;12.40;99.90;;;;;;5071361;28;20423;-72
2023/04/28 11:02:39;;;;;;;1999.90;999.90;;;12.40;99.90;;;;;;5071003;28;20424;-72
2023/04/28 11:05:14;;;;;;;1999.90;999.90;;;12.30;99.90;;;;;;5063708;28;20422;-72
2023/04/28 11:07:41;;;;;;;1999.90;999.90;;;12.30;99.90;;;;;;5071410;28;20945;-72
2023/04/28 11:10:08;;;;;;;1999.90;999.90;;;12.40;99.90;;;;;;5071242;28;20763;-72
2023/04/28 11:12:35;;;;;;;1999.90;999.90;;;12.30;99.90;;;;;;5070883;28;20411;-70
2023/04/28 11:15:13;;;;;;;1999.90;999.90;;;12.50;99.90;;;;;;5071665;28;20862;-72
2023/04/28 11:17:41;;;;;;;1999.90;999.90;;;12.40;99.90;;;;;;5069505;28;20463;-72
2023/04/28 11:20:13;;;;;;;1999.90;999.90;;;12.40;99.90;;;;;;5063453;28;20412;-72
2023/04/28 11:22:40;;;;;;;1999.90;999.90;;;12.30;99.90;;;;;;5070731;28;20785;-72
2023/04/28 11:25:07;;;;;;;1999.90;999.90;;;12.50;99.90;;;;;;5071009;28;20461;-69
2023/04/28 11:27:34;;;;;;;1999.90;999.90;;;12.40;99.90;;;;;;5070842;28;20461;-71
2023/04/28 11:30:01;;;;;;;1999.90;999.90;;;12.30;99.90;;;;;;5070872;28;20447;-72
2023/04/28 11:32:31;;;;;;;1999.90;999.90;;;12.40;99.90;;;;;;5062950;28;20855;-69
2023/04/28 11:34:58;;;;;;;1999.90;999.90;;;12.60;99.90;;;;;;5070026;28;20844;-73
2023/04/28 11:37:25;;;;;;;1999.90;999.90;;;12.70;99.90;;;;;;5070582;28;20420;-72
2023/04/28 11:39:53;;;;;;;1999.90;999.90;;;12.80;99.90;;;;;;5070798;28;20485;-72
2023/04/28 11:42:19;;;;;;;1999.90;999.90;;;12.70;99.90;;;;;;5069882;28;20412;-72
2023/04/28 11:44:51;;;;;;;1999.90;999.90;;;12.70;99.90;;;;;;5070683;28;20829;-72
2023/04/28 11:47:31;;;;;;;1999.90;999.90;;;12.60;99.90;;;;;;5064139;28;20520;-72
2023/04/28 11:49:58;;;;;;;1999.90;999.90;;;12.70;99.90;;;;;;5069510;28;20419;-72
2023/04/28 11:52:26;;;;;;;1999.90;999.90;;;12.90;99.90;;;;;;5070223;28;20820;-69
2023/04/28 11:54:56;;;;;;;1999.90;999.90;;;12.90;99.90;;;;;;5070425;28;20451;-72
2023/04/28 11:57:24;;;;;;;1999.90;999.90;;;12.90;99.90;;;;;;5070625;28;20423;-73
2023/04/28 11:59:51;;;;;;;1999.90;999.90;;;13.00;99.90;;;;;;5070400;28;20898;-72
2023/04/28 12:02:26;;;;;;;1999.90;999.90;;;13.40;99.90;;;;;;5060792;28;20440;-72
2023/04/28 12:04:55;;;;;;;1999.90;999.90;;;13.70;99.90;;;;;;5070283;28;20498;-72
2023/04/28 12:07:21;;;;;;;1999.90;999.90;;;13.90;99.90;;;;;;5069078;28;20485;-72
2023/04/28 12:10:09;;;;;;;1999.90;999.90;;;14.10;99.90;;;;;;5059084;28;20516;-72